createdAt,value
2019-03-21T00:01:03.926Z,54.30
2019-03-21T00:03:34.550Z,54.30
2019-03-21T00:06:06.827Z,54.20
2019-03-21T00:08:37.614Z,54.30
2019-03-21T00:12:11.900Z,54.30
2019-03-21T00:15:26.824Z,54.30
2019-03-21T00:18:05.108Z,54.80
2019-03-21T00:20:35.954Z,55.10
2019-03-21T00:23:06.729Z,55.00
2019-03-21T00:25:37.800Z,55.30
2019-03-21T00:28:08.465Z,55.50
2019-03-21T00:30:39.266Z,55.70
2019-03-21T00:33:09.855Z,55.80
2019-03-21T00:35:40.595Z,56.00
2019-03-21T00:38:11.288Z,55.70
2019-03-21T00:40:44.214Z,55.70
2019-03-21T00:43:15.063Z,55.50
2019-03-21T00:45:45.976Z,55.30
2019-03-21T00:48:18.755Z,55.40
2019-03-21T00:50:49.504Z,55.40
2019-03-21T00:53:20.239Z,55.70
2019-03-21T00:55:51.263Z,55.80
2019-03-21T00:58:22.032Z,55.80
2019-03-21T01:00:54.418Z,56.20
2019-03-21T01:03:25.250Z,56.20
2019-03-21T01:05:56.133Z,55.70
2019-03-21T01:08:26.890Z,56.00
2019-03-21T01:10:57.657Z,56.30
2019-03-21T01:13:31.292Z,56.40
2019-03-21T01:16:02.105Z,56.90
2019-03-21T01:18:33.207Z,57.00
2019-03-21T01:21:03.930Z,57.10
2019-03-21T01:23:34.607Z,57.10
2019-03-21T01:26:05.633Z,57.30
2019-03-21T01:28:37.129Z,57.50
2019-03-21T01:31:07.826Z,57.60
2019-03-21T01:33:38.625Z,57.60
2019-03-21T01:36:09.360Z,57.60
2019-03-21T01:38:40.163Z,57.90
2019-03-21T01:41:11.111Z,57.90
2019-03-21T01:43:41.972Z,57.90
2019-03-21T01:46:13.341Z,57.90
2019-03-21T01:48:44.104Z,58.40
2019-03-21T01:51:14.921Z,58.30
2019-03-21T01:53:45.707Z,58.30
2019-03-21T01:56:16.368Z,58.30
2019-03-21T01:58:56.861Z,58.80
2019-03-21T02:01:27.578Z,58.60
2019-03-21T02:03:58.268Z,58.60
2019-03-21T02:06:28.964Z,58.70
2019-03-21T02:08:59.594Z,58.60
2019-03-21T02:11:30.400Z,58.70
2019-03-21T02:14:01.153Z,58.70
2019-03-21T02:16:31.854Z,58.80
2019-03-21T02:19:02.585Z,58.90
2019-03-21T02:21:33.236Z,58.40
2019-03-21T02:24:04.986Z,58.50
2019-03-21T02:26:35.815Z,58.60
2019-03-21T02:29:06.510Z,58.80
2019-03-21T02:31:37.221Z,59.10
2019-03-21T02:34:08.156Z,59.30
2019-03-21T02:36:39.195Z,59.00
2019-03-21T02:39:09.940Z,58.50
2019-03-21T02:41:40.713Z,58.50
2019-03-21T02:44:11.535Z,58.80
2019-03-21T02:46:42.236Z,58.90
2019-03-21T02:49:12.999Z,58.50
2019-03-21T02:51:43.690Z,58.70
2019-03-21T02:54:14.427Z,58.80
2019-03-21T02:56:46.018Z,59.50
2019-03-21T02:59:18.266Z,59.00
2019-03-21T03:01:49.123Z,58.80
2019-03-21T03:04:19.725Z,58.60
2019-03-21T03:06:50.478Z,58.90
2019-03-21T03:09:21.363Z,59.00
2019-03-21T03:11:52.093Z,59.30
2019-03-21T03:14:22.806Z,59.60
2019-03-21T03:16:53.592Z,59.70
2019-03-21T03:19:24.317Z,60.00
2019-03-21T03:21:55.570Z,59.90
2019-03-21T03:24:29.281Z,60.80
2019-03-21T03:27:00.108Z,60.00
2019-03-21T03:29:30.840Z,59.70
2019-03-21T03:32:01.502Z,59.70
2019-03-21T03:34:32.117Z,59.90
2019-03-21T03:37:03.012Z,60.00
2019-03-21T03:39:36.789Z,60.00
2019-03-21T03:42:06.441Z,59.90
2019-03-21T03:44:37.064Z,60.10
2019-03-21T03:47:07.865Z,60.10
2019-03-21T03:49:38.568Z,60.30
2019-03-21T03:52:09.370Z,60.40
2019-03-21T03:54:40.308Z,60.50
2019-03-21T03:57:11.030Z,60.70
2019-03-21T03:59:41.723Z,61.10
2019-03-21T04:02:12.727Z,60.90
2019-03-21T04:04:43.494Z,61.00
2019-03-21T04:07:14.520Z,61.20
2019-03-21T04:09:45.234Z,61.70
2019-03-21T04:12:16.371Z,61.60
2019-03-21T04:14:47.130Z,61.70
2019-03-21T04:17:17.867Z,61.50
2019-03-21T04:19:48.519Z,61.40
2019-03-21T04:22:19.436Z,61.10
2019-03-21T04:24:50.222Z,61.30
2019-03-21T04:27:21.121Z,61.20
2019-03-21T04:29:51.858Z,61.60
2019-03-21T04:32:22.897Z,61.60
2019-03-21T04:34:53.528Z,61.60
2019-03-21T04:37:24.292Z,61.60
2019-03-21T04:39:55.087Z,61.60
2019-03-21T04:42:26.027Z,61.60
2019-03-21T04:44:56.688Z,61.50
2019-03-21T04:47:27.474Z,61.80
2019-03-21T04:49:58.123Z,62.00
2019-03-21T04:52:28.925Z,62.50
2019-03-21T04:54:59.658Z,62.30
2019-03-21T04:57:30.614Z,62.10
2019-03-21T05:00:03.552Z,62.20
2019-03-21T05:02:34.173Z,62.30
2019-03-21T05:05:06.091Z,61.90
2019-03-21T05:07:36.888Z,61.80
2019-03-21T05:10:09.970Z,61.80
2019-03-21T05:12:40.829Z,62.30
2019-03-21T05:15:15.922Z,62.10
2019-03-21T05:17:48.147Z,62.40
2019-03-21T05:20:24.460Z,62.20
2019-03-21T05:22:55.190Z,62.60
2019-03-21T05:25:26.129Z,62.90
2019-03-21T05:27:58.891Z,62.80
2019-03-21T05:30:34.660Z,63.10
2019-03-21T05:33:05.261Z,63.60
2019-03-21T05:35:38.059Z,63.40
2019-03-21T05:38:08.995Z,63.40
2019-03-21T05:40:59.325Z,63.10
2019-03-21T05:43:44.730Z,63.00
2019-03-21T05:46:26.051Z,63.00
2019-03-21T05:48:49.453Z,63.00
2019-03-21T05:51:20.284Z,62.70
2019-03-21T05:53:53.810Z,62.50
2019-03-21T05:56:27.002Z,62.40
2019-03-21T05:58:57.855Z,62.30
2019-03-21T06:01:31.740Z,62.50
2019-03-21T06:04:02.777Z,62.90
2019-03-21T06:07:02.612Z,63.10
2019-03-21T06:09:34.030Z,63.00
2019-03-21T06:12:05.091Z,63.10
2019-03-21T06:14:38.878Z,63.20
2019-03-21T06:17:09.909Z,63.50
2019-03-21T06:20:09.799Z,63.70
2019-03-21T06:23:50.428Z,63.50
2019-03-21T06:26:51.314Z,63.30
2019-03-21T06:29:22.136Z,62.90
2019-03-21T06:31:56.804Z,62.70
2019-03-21T06:34:27.883Z,62.70
2019-03-21T06:36:58.945Z,62.40
2019-03-21T06:39:29.979Z,62.20
2019-03-21T06:42:02.068Z,62.20
2019-03-21T06:44:36.690Z,62.20
2019-03-21T06:47:11.066Z,62.00
2019-03-21T06:49:46.491Z,62.00
2019-03-21T06:52:17.932Z,62.00
2019-03-21T06:54:48.810Z,61.90
2019-03-21T06:57:20.250Z,61.60
2019-03-21T06:59:51.119Z,61.40
2019-03-21T07:02:22.093Z,61.40
2019-03-21T07:04:53.125Z,61.40
2019-03-21T07:07:24.778Z,61.30
2019-03-21T07:09:55.522Z,61.40
2019-03-21T07:12:28.329Z,61.30
2019-03-21T07:14:59.538Z,61.00
2019-03-21T07:17:57.763Z,60.60
2019-03-21T07:20:28.605Z,60.20
2019-03-21T07:22:59.273Z,58.80
2019-03-21T07:25:30.527Z,58.90
2019-03-21T07:28:04.205Z,58.80
2019-03-21T07:30:35.259Z,58.10
2019-03-21T07:33:06.468Z,58.50
2019-03-21T07:35:37.123Z,57.30
2019-03-21T07:38:08.609Z,57.00
2019-03-21T07:40:41.267Z,56.60
2019-03-21T07:43:12.778Z,56.40
2019-03-21T07:45:43.948Z,54.30
2019-03-21T07:48:15.562Z,52.50
2019-03-21T07:50:46.238Z,51.20
2019-03-21T07:53:16.967Z,51.30
2019-03-21T07:55:47.620Z,51.90
2019-03-21T07:58:19.226Z,49.50
2019-03-21T08:00:50.239Z,50.50
2019-03-21T08:03:20.848Z,48.20
2019-03-21T08:05:51.586Z,46.80
2019-03-21T08:08:22.319Z,46.80
2019-03-21T08:10:53.135Z,45.60
2019-03-21T08:13:23.784Z,46.20
2019-03-21T08:15:54.464Z,45.60
2019-03-21T08:18:25.297Z,46.00
2019-03-21T08:20:59.771Z,46.50
2019-03-21T08:23:29.605Z,45.70
2019-03-21T08:26:00.450Z,45.90
2019-03-21T08:28:31.663Z,44.80
2019-03-21T08:31:18.168Z,43.40
2019-03-21T08:33:48.918Z,44.30
2019-03-21T08:36:19.635Z,44.30
2019-03-21T08:38:50.313Z,43.60
2019-03-21T08:41:24.062Z,44.20
2019-03-21T08:43:54.807Z,43.60
2019-03-21T08:46:25.493Z,42.40
2019-03-21T08:48:56.333Z,42.20
2019-03-21T08:51:27.106Z,42.80
2019-03-21T08:53:57.829Z,40.50
2019-03-21T08:56:28.481Z,41.30
2019-03-21T08:58:59.493Z,41.20
2019-03-21T09:01:30.599Z,41.00
2019-03-21T09:04:01.476Z,39.60
2019-03-21T09:06:32.663Z,39.80
2019-03-21T09:09:06.012Z,39.10
2019-03-21T09:11:36.699Z,38.70
2019-03-21T09:14:07.488Z,38.40
2019-03-21T09:16:38.290Z,38.30
2019-03-21T09:19:09.130Z,37.30
2019-03-21T09:21:39.986Z,37.60
2019-03-21T09:24:10.720Z,36.80
2019-03-21T09:26:41.457Z,36.50
2019-03-21T09:29:12.116Z,36.70
2019-03-21T09:31:42.890Z,36.40
2019-03-21T09:34:13.671Z,36.00
2019-03-21T09:36:44.641Z,35.30
2019-03-21T09:39:15.331Z,35.40
2019-03-21T09:41:46.128Z,35.40
2019-03-21T09:44:22.698Z,36.10
2019-03-21T09:46:54.011Z,34.80
2019-03-21T09:49:29.156Z,35.60
2019-03-21T09:52:00.269Z,34.90
2019-03-21T09:54:31.077Z,34.60
2019-03-21T09:57:01.817Z,35.20
2019-03-21T09:59:32.599Z,34.60
2019-03-21T10:02:03.361Z,35.10
2019-03-21T10:04:34.307Z,35.50
2019-03-21T10:07:05.433Z,35.40
2019-03-21T10:09:36.523Z,34.70
2019-03-21T10:12:07.625Z,33.70
2019-03-21T10:14:39.024Z,33.70
2019-03-21T10:17:09.694Z,33.00
2019-03-21T10:19:41.697Z,32.60
2019-03-21T10:22:12.352Z,32.40
2019-03-21T10:24:43.044Z,32.10
2019-03-21T10:27:13.724Z,31.90
2019-03-21T10:29:44.647Z,31.40
2019-03-21T10:32:15.633Z,30.00
2019-03-21T10:34:46.367Z,28.90
2019-03-21T10:37:17.397Z,28.40
2019-03-21T10:39:48.329Z,28.20
2019-03-21T10:42:21.535Z,28.30
2019-03-21T10:44:52.306Z,28.30
2019-03-21T10:47:26.069Z,28.30
2019-03-21T10:49:59.038Z,28.20
2019-03-21T10:52:31.723Z,28.00
2019-03-21T10:55:02.428Z,27.90
2019-03-21T10:57:33.228Z,28.30
2019-03-21T11:00:06.109Z,28.70
2019-03-21T11:02:37.137Z,27.80
2019-03-21T11:05:08.024Z,27.10
2019-03-21T11:07:38.861Z,27.30
2019-03-21T11:10:11.670Z,26.70
2019-03-21T11:12:44.991Z,27.60
2019-03-21T11:15:16.820Z,26.60
2019-03-21T11:17:49.888Z,26.70
2019-03-21T11:20:38.700Z,26.50
2019-03-21T11:23:09.715Z,25.90
2019-03-21T11:25:41.789Z,26.40
2019-03-21T11:28:12.828Z,26.40
2019-03-21T11:30:45.708Z,26.10
2019-03-21T11:33:16.558Z,26.20
2019-03-21T11:36:08.430Z,25.70
2019-03-21T11:38:39.386Z,25.20
2019-03-21T11:41:10.667Z,25.90
2019-03-21T11:43:43.735Z,25.00
2019-03-21T11:46:14.549Z,25.60
2019-03-21T11:48:45.651Z,24.60
2019-03-21T11:51:16.662Z,24.00
2019-03-21T11:53:48.679Z,24.30
2019-03-21T11:56:19.899Z,24.00
2019-03-21T11:58:51.084Z,23.50
2019-03-21T12:01:21.933Z,22.90
2019-03-21T12:03:52.748Z,23.40
2019-03-21T12:06:23.901Z,23.40
2019-03-21T12:08:57.010Z,22.80
2019-03-21T12:11:28.000Z,23.00
2019-03-21T12:13:59.048Z,22.10
2019-03-21T12:16:29.829Z,22.10
2019-03-21T12:19:00.626Z,21.70
2019-03-21T12:21:31.537Z,22.10
2019-03-21T12:24:05.413Z,21.20
2019-03-21T12:26:36.359Z,22.20
2019-03-21T12:29:07.052Z,21.90
2019-03-21T12:31:37.838Z,21.50
2019-03-21T12:34:08.762Z,22.20
2019-03-21T12:36:39.848Z,20.90
2019-03-21T12:39:10.951Z,21.80
2019-03-21T12:41:43.113Z,21.10
2019-03-21T12:44:14.064Z,20.40
2019-03-21T12:46:46.245Z,20.50
2019-03-21T12:49:17.660Z,20.40
2019-03-21T12:51:48.416Z,20.70
2019-03-21T12:54:19.241Z,20.30
2019-03-21T12:56:49.947Z,20.70
2019-03-21T12:59:20.672Z,20.80
2019-03-21T13:01:52.423Z,20.40
2019-03-21T13:04:23.246Z,20.60
2019-03-21T13:06:54.130Z,20.70
2019-03-21T13:09:25.006Z,20.90
2019-03-21T13:11:56.050Z,20.70
2019-03-21T13:14:29.442Z,20.80
2019-03-21T13:17:00.688Z,20.60
2019-03-21T13:19:58.532Z,21.30
2019-03-21T13:22:33.303Z,21.40
2019-03-21T13:25:04.315Z,21.80
2019-03-21T13:27:35.058Z,21.60
2019-03-21T13:30:07.119Z,21.70
2019-03-21T13:32:38.058Z,22.00
2019-03-21T13:35:09.025Z,21.40
2019-03-21T13:37:39.947Z,21.60
2019-03-21T13:40:10.762Z,21.60
2019-03-21T13:42:41.691Z,22.40
2019-03-21T13:45:12.494Z,21.70
2019-03-21T13:47:43.263Z,22.40
2019-03-21T13:50:14.587Z,22.50
2019-03-21T13:52:45.580Z,22.10
2019-03-21T13:55:18.424Z,21.90
2019-03-21T13:57:49.089Z,21.90
2019-03-21T14:00:21.198Z,22.60
2019-03-21T14:02:52.558Z,22.20
2019-03-21T14:05:23.970Z,21.80
2019-03-21T14:07:54.649Z,22.10
2019-03-21T14:10:25.288Z,22.10
2019-03-21T14:12:56.018Z,22.10
2019-03-21T14:15:26.930Z,22.30
2019-03-21T14:17:59.175Z,22.50
2019-03-21T14:20:29.757Z,22.20
2019-03-21T14:23:01.529Z,22.50
2019-03-21T14:25:32.420Z,22.00
2019-03-21T14:28:03.551Z,22.10
2019-03-21T14:30:34.214Z,21.30
2019-03-21T14:33:08.191Z,20.90
2019-03-21T14:35:38.710Z,21.00
2019-03-21T14:38:09.595Z,22.20
2019-03-21T14:40:40.427Z,21.40
2019-03-21T14:43:11.958Z,20.60
2019-03-21T14:45:43.676Z,20.70
2019-03-21T14:48:14.669Z,20.70
2019-03-21T14:50:45.811Z,20.10
2019-03-21T14:53:28.013Z,20.40
2019-03-21T14:55:49.656Z,19.70
2019-03-21T14:58:20.389Z,20.10
2019-03-21T15:00:51.758Z,19.40
2019-03-21T15:03:22.523Z,19.50
2019-03-21T15:05:54.179Z,18.20
2019-03-21T15:08:25.284Z,18.40
2019-03-21T15:10:56.106Z,17.70
2019-03-21T15:13:27.008Z,18.00
2019-03-21T15:15:57.942Z,16.70
2019-03-21T15:18:28.949Z,15.80
2019-03-21T15:20:59.834Z,16.60
2019-03-21T15:23:40.092Z,17.20
2019-03-21T15:26:03.314Z,16.90
2019-03-21T15:28:35.341Z,16.70
2019-03-21T15:31:06.651Z,16.60
2019-03-21T15:33:37.612Z,17.40
2019-03-21T15:36:09.320Z,17.40
2019-03-21T15:38:40.359Z,17.40
2019-03-21T15:41:11.579Z,17.30
2019-03-21T15:43:42.454Z,17.60
2019-03-21T15:46:13.966Z,18.10
2019-03-21T15:48:45.609Z,18.00
2019-03-21T15:51:16.449Z,18.00
2019-03-21T15:53:54.543Z,18.40
2019-03-21T15:56:19.799Z,18.00
2019-03-21T15:58:50.456Z,18.20
2019-03-21T16:01:21.906Z,18.60
2019-03-21T16:03:52.628Z,19.30
2019-03-21T16:06:23.963Z,19.10
2019-03-21T16:08:55.126Z,19.40
2019-03-21T16:11:26.163Z,19.70
2019-03-21T16:13:57.027Z,19.20
2019-03-21T16:16:27.742Z,19.50
2019-03-21T16:18:58.608Z,19.60
2019-03-21T16:21:30.469Z,19.50
2019-03-21T16:24:05.466Z,19.40
2019-03-21T16:26:36.633Z,19.40
2019-03-21T16:29:06.617Z,19.60
2019-03-21T16:31:37.327Z,19.70
2019-03-21T16:34:08.018Z,20.10
2019-03-21T16:36:43.450Z,20.30
2019-03-21T16:39:14.387Z,20.60
2019-03-21T16:41:46.047Z,20.70
2019-03-21T16:44:20.315Z,20.60
2019-03-21T16:46:51.321Z,20.90
2019-03-21T16:49:22.389Z,21.10
2019-03-21T16:51:53.305Z,20.50
2019-03-21T16:54:30.290Z,20.80
2019-03-21T16:57:14.081Z,20.90
2019-03-21T16:59:45.307Z,21.20
2019-03-21T17:02:16.807Z,21.50
2019-03-21T17:05:10.159Z,21.70
2019-03-21T17:07:42.630Z,22.00
2019-03-21T17:15:31.695Z,22.50
2019-03-21T17:18:03.838Z,22.50
2019-03-21T17:20:35.408Z,22.50
2019-03-21T17:23:06.703Z,23.10
2019-03-21T17:25:39.379Z,23.30
2019-03-21T17:28:10.169Z,23.50
2019-03-21T17:30:41.279Z,23.80
2019-03-21T17:33:14.647Z,24.00
2019-03-21T17:35:47.720Z,24.30
2019-03-21T17:38:19.191Z,24.60
2019-03-21T17:40:50.369Z,25.00
2019-03-21T17:43:27.563Z,25.10
2019-03-21T17:45:58.721Z,25.30
2019-03-21T17:48:33.831Z,25.60
2019-03-21T17:51:05.082Z,26.00
2019-03-21T17:53:35.963Z,25.90
2019-03-21T17:56:07.003Z,26.00
2019-03-21T17:58:38.075Z,26.30
2019-03-21T18:01:09.675Z,26.50
2019-03-21T18:03:40.874Z,26.60
2019-03-21T18:06:11.799Z,26.70
2019-03-21T18:08:42.950Z,26.90
2019-03-21T18:11:15.102Z,27.10
2019-03-21T18:14:06.507Z,27.80
2019-03-21T18:16:39.570Z,28.10
2019-03-21T18:19:10.463Z,28.70
2019-03-21T18:21:43.746Z,28.90
2019-03-21T18:24:14.996Z,28.90
2019-03-21T18:26:46.399Z,29.00
2019-03-21T18:29:19.879Z,29.30
2019-03-21T18:31:50.921Z,29.50
2019-03-21T18:34:21.850Z,29.70
2019-03-21T18:36:52.893Z,30.70
2019-03-21T18:39:24.274Z,30.70
2019-03-21T18:41:55.212Z,31.10
2019-03-21T18:44:26.375Z,31.90
2019-03-21T18:46:57.813Z,32.00
2019-03-21T18:49:30.201Z,32.40
2019-03-21T18:52:01.120Z,32.70
2019-03-21T18:54:32.105Z,33.10
2019-03-21T18:57:03.052Z,33.50
2019-03-21T18:59:34.145Z,33.90
2019-03-21T19:02:05.148Z,34.40
2019-03-21T19:04:36.084Z,34.70
2019-03-21T19:07:10.039Z,34.90
2019-03-21T19:09:43.812Z,34.90
2019-03-21T19:12:15.482Z,35.40
2019-03-21T19:14:46.818Z,36.20
2019-03-21T19:17:18.798Z,36.20
2019-03-21T19:19:57.008Z,36.20
2019-03-21T19:22:30.931Z,36.10
2019-03-21T19:25:01.843Z,36.10
2019-03-21T19:27:32.607Z,36.50
2019-03-21T19:30:05.061Z,36.70
2019-03-21T19:32:36.078Z,38.20
2019-03-21T19:35:08.359Z,38.00
2019-03-21T19:37:39.597Z,38.30
2019-03-21T19:40:11.783Z,38.40
2019-03-21T19:42:47.344Z,38.60
2019-03-21T19:45:31.300Z,38.90
2019-03-21T19:48:03.208Z,39.00
2019-03-21T19:50:34.907Z,39.30
2019-03-21T19:53:06.109Z,39.60
2019-03-21T19:55:37.223Z,40.30
2019-03-21T19:58:08.434Z,40.30
2019-03-21T20:00:39.819Z,40.30
2019-03-21T20:03:11.303Z,40.40
2019-03-21T20:05:43.685Z,40.20
2019-03-21T20:08:15.190Z,40.70
2019-03-21T20:10:46.266Z,41.00
2019-03-21T20:13:17.496Z,41.10
2019-03-21T20:15:48.623Z,41.50
2019-03-21T20:18:21.375Z,41.70
2019-03-21T20:20:52.792Z,42.00
2019-03-21T20:23:25.037Z,41.80
2019-03-21T20:25:58.144Z,41.80
2019-03-21T20:28:33.480Z,41.70
2019-03-21T20:31:05.462Z,42.20
2019-03-21T20:33:37.217Z,42.30
2019-03-21T20:36:13.372Z,42.70
2019-03-21T20:38:46.399Z,42.50
2019-03-21T20:41:18.248Z,42.60
2019-03-21T20:44:00.183Z,43.20
2019-03-21T20:59:57.500Z,43.00
2019-03-21T21:02:29.334Z,43.30
2019-03-21T21:05:00.752Z,43.60
2019-03-21T21:07:33.545Z,43.60
2019-03-21T21:10:06.989Z,43.90
2019-03-21T21:12:48.294Z,44.40
2019-03-21T21:15:25.379Z,44.40
2019-03-21T21:17:56.727Z,44.30
2019-03-21T21:20:29.180Z,44.30
2019-03-21T21:23:11.097Z,44.30
2019-03-21T21:25:45.328Z,44.30
2019-03-21T21:28:17.222Z,44.20
2019-03-21T21:30:54.406Z,44.80
2019-03-21T21:33:30.913Z,45.00
2019-03-21T21:36:04.079Z,45.00
2019-03-21T21:38:35.535Z,45.40
2019-03-21T21:41:06.964Z,45.30
2019-03-21T21:43:38.608Z,45.60
2019-03-21T21:46:09.962Z,45.50
2019-03-21T21:48:41.370Z,45.00
2019-03-21T21:51:23.353Z,45.50
2019-03-21T21:53:54.159Z,45.40
2019-03-21T21:56:25.280Z,45.30
2019-03-21T21:58:56.269Z,45.30
2019-03-21T22:01:48.606Z,45.50
2019-03-21T22:04:20.151Z,45.70
2019-03-21T22:06:57.826Z,45.80
2019-03-21T22:09:28.889Z,46.30
2019-03-21T22:12:01.025Z,46.40
2019-03-21T22:14:32.887Z,46.70
2019-03-21T22:17:15.866Z,46.60
2019-03-21T22:19:53.003Z,46.60
2019-03-21T22:23:27.386Z,46.70
2019-03-21T22:25:42.102Z,46.80
2019-03-21T22:28:16.857Z,47.30
2019-03-21T22:30:50.140Z,47.60
2019-03-21T22:33:23.457Z,47.50
2019-03-21T22:35:54.238Z,47.60
2019-03-21T22:38:25.196Z,47.80
2019-03-21T22:40:58.417Z,47.90
2019-03-21T22:43:32.201Z,47.60
2019-03-21T22:46:03.024Z,48.20
2019-03-21T22:48:34.010Z,48.00
2019-03-21T22:51:04.800Z,47.90
2019-03-21T22:53:36.090Z,48.00
2019-03-21T22:56:06.830Z,47.80
2019-03-21T22:58:37.638Z,48.00
2019-03-21T23:01:11.434Z,48.40
2019-03-21T23:03:43.474Z,48.40
2019-03-21T23:06:15.142Z,48.20
2019-03-21T23:08:45.937Z,48.50
2019-03-21T23:11:17.556Z,48.60
2019-03-21T23:13:48.353Z,48.40
2019-03-21T23:16:19.104Z,48.80
2019-03-21T23:18:49.799Z,49.10
2019-03-21T23:21:20.527Z,48.40
2019-03-21T23:23:51.276Z,48.70
2019-03-21T23:26:22.243Z,48.90
2019-03-21T23:28:55.535Z,48.90
2019-03-21T23:31:26.499Z,49.10
2019-03-21T23:33:57.294Z,49.10
2019-03-21T23:36:29.272Z,49.00
2019-03-21T23:39:03.128Z,49.00
2019-03-21T23:41:33.780Z,49.60
2019-03-21T23:44:04.502Z,49.40
2019-03-21T23:46:35.372Z,49.30
2019-03-21T23:49:05.994Z,49.60
2019-03-21T23:51:36.703Z,49.30
2019-03-21T23:54:07.608Z,49.60
2019-03-21T23:56:39.802Z,50.00
2019-03-21T23:59:10.440Z,50.00
